createdAt,value
2019-02-15T00:02:23.607Z,103622.33
2019-02-15T00:04:55.555Z,103616.31
2019-02-15T00:07:27.489Z,103614.37
2019-02-15T00:09:59.417Z,103612.58
2019-02-15T00:12:31.354Z,103611.84
2019-02-15T00:15:03.335Z,103608.63
2019-02-15T00:17:52.173Z,103607.01
2019-02-15T00:20:28.430Z,103610.59
2019-02-15T00:23:00.342Z,103612.71
2019-02-15T00:25:32.271Z,103611.94
2019-02-15T00:28:04.572Z,103610.72
2019-02-15T00:30:36.566Z,103614.41
2019-02-15T00:33:08.766Z,103611.16
2019-02-15T00:35:40.766Z,103604.54
2019-02-15T00:38:12.698Z,103602.70
2019-02-15T00:40:44.620Z,103610.91
2019-02-15T00:43:22.142Z,103607.58
2019-02-15T00:45:52.172Z,103606.52
2019-02-15T00:48:25.746Z,103607.17
2019-02-15T00:51:15.648Z,103619.35
2019-02-15T00:53:49.582Z,103616.27
2019-02-15T00:56:23.138Z,103613.84
2019-02-15T00:59:12.062Z,103616.16
2019-02-15T01:01:51.242Z,103610.55
2019-02-15T01:04:24.813Z,103615.59
2019-02-15T01:07:04.396Z,103623.03
2019-02-15T01:09:40.880Z,103624.98
2019-02-15T01:12:18.094Z,103618.44
2019-02-15T01:14:50.175Z,103621.12
2019-02-15T01:17:22.100Z,103614.38
2019-02-15T01:19:54.046Z,103623.52
2019-02-15T01:22:25.969Z,103617.54
2019-02-15T01:24:58.948Z,103623.22
2019-02-15T01:27:35.582Z,103625.78
2019-02-15T01:30:11.114Z,103624.14
2019-02-15T01:32:44.682Z,103624.55
2019-02-15T01:35:20.925Z,103629.80
2019-02-15T01:37:55.023Z,103624.83
2019-02-15T01:40:34.718Z,103630.76
2019-02-15T01:43:08.361Z,103628.16
2019-02-15T01:45:42.467Z,103623.39
2019-02-15T01:48:14.399Z,103620.95
2019-02-15T01:50:46.712Z,103614.92
2019-02-15T01:53:18.800Z,103611.59
2019-02-15T01:55:50.911Z,103613.37
2019-02-15T01:58:22.911Z,103615.56
2019-02-15T02:00:54.940Z,103611.50
2019-02-15T02:03:27.248Z,103615.00
2019-02-15T02:05:59.619Z,103611.59
2019-02-15T02:08:31.940Z,103616.80
2019-02-15T02:11:03.870Z,103615.66
2019-02-15T02:13:35.945Z,103615.73
2019-02-15T02:16:07.924Z,103615.66
2019-02-15T02:18:40.145Z,103612.81
2019-02-15T02:21:12.167Z,103611.67
2019-02-15T02:23:44.123Z,103608.67
2019-02-15T02:26:16.049Z,103607.78
2019-02-15T02:28:48.045Z,103604.45
2019-02-15T02:31:20.061Z,103604.25
2019-02-15T02:33:51.990Z,103607.51
2019-02-15T02:36:34.145Z,103604.30
2019-02-15T02:39:06.344Z,103605.78
2019-02-15T02:41:38.271Z,103609.88
2019-02-15T02:44:10.207Z,103605.18
2019-02-15T02:46:42.145Z,103606.52
2019-02-15T02:49:14.081Z,103607.50
2019-02-15T02:51:46.052Z,103607.91
2019-02-15T02:54:18.245Z,103603.48
2019-02-15T02:56:50.264Z,103605.44
2019-02-15T02:59:22.203Z,103603.73
2019-02-15T03:01:54.172Z,103597.59
2019-02-15T03:04:26.100Z,103606.70
2019-02-15T03:06:58.108Z,103597.72
2019-02-15T03:09:30.059Z,103596.37
2019-02-15T03:12:01.989Z,103597.42
2019-02-15T03:14:33.926Z,103597.29
2019-02-15T03:17:05.845Z,103597.16
2019-02-15T03:19:37.787Z,103590.58
2019-02-15T03:22:09.791Z,103583.26
2019-02-15T03:24:41.789Z,103584.72
2019-02-15T03:27:13.712Z,103578.24
2019-02-15T03:29:46.326Z,103584.81
2019-02-15T03:32:18.326Z,103586.39
2019-02-15T03:34:50.278Z,103593.77
2019-02-15T03:37:27.103Z,103584.51
2019-02-15T03:40:01.027Z,103583.40
2019-02-15T03:42:33.009Z,103575.44
2019-02-15T03:45:07.862Z,103578.19
2019-02-15T03:47:39.790Z,103587.03
2019-02-15T03:50:11.807Z,103583.81
2019-02-15T03:52:43.732Z,103578.37
2019-02-15T03:55:15.667Z,103580.95
2019-02-15T03:57:47.613Z,103580.00
2019-02-15T04:00:19.893Z,103573.27
2019-02-15T04:02:51.894Z,103574.31
2019-02-15T04:05:23.823Z,103574.80
2019-02-15T04:07:55.787Z,103572.37
2019-02-15T04:10:27.700Z,103569.61
2019-02-15T04:12:59.628Z,103566.20
2019-02-15T04:15:31.555Z,103561.17
2019-02-15T04:18:03.553Z,103560.84
2019-02-15T04:20:35.954Z,103565.38
2019-02-15T04:23:08.295Z,103567.66
2019-02-15T04:25:40.310Z,103566.84
2019-02-15T04:28:12.231Z,103564.17
2019-02-15T04:30:44.150Z,103570.25
2019-02-15T04:33:16.083Z,103569.38
2019-02-15T04:35:48.005Z,103570.92
2019-02-15T04:38:19.958Z,103572.21
2019-02-15T04:40:51.884Z,103570.83
2019-02-15T04:43:23.818Z,103570.67
2019-02-15T04:45:55.752Z,103574.39
2019-02-15T04:48:28.045Z,103573.82
2019-02-15T04:50:59.954Z,103573.91
2019-02-15T04:53:32.682Z,103577.23
2019-02-15T04:56:04.699Z,103585.18
2019-02-15T04:58:36.698Z,103581.93
2019-02-15T05:01:08.785Z,103581.93
2019-02-15T05:03:40.905Z,103570.77
2019-02-15T05:06:12.820Z,103570.03
2019-02-15T05:08:44.758Z,103577.73
2019-02-15T05:11:16.744Z,103575.78
2019-02-15T05:13:48.867Z,103578.94
2019-02-15T05:16:20.871Z,103584.84
2019-02-15T05:18:52.785Z,103586.33
2019-02-15T05:21:24.723Z,103584.55
2019-02-15T05:23:56.815Z,103581.88
2019-02-15T05:26:29.213Z,103582.92
2019-02-15T05:29:01.615Z,103579.11
2019-02-15T05:31:34.010Z,103575.21
2019-02-15T05:34:06.511Z,103576.11
2019-02-15T05:36:38.596Z,103579.67
2019-02-15T05:39:10.598Z,103573.09
2019-02-15T05:41:42.522Z,103566.37
2019-02-15T05:44:16.299Z,103571.64
2019-02-15T05:46:48.198Z,103566.13
2019-02-15T05:49:20.594Z,103568.78
2019-02-15T05:51:52.525Z,103571.46
2019-02-15T05:54:24.448Z,103573.08
2019-02-15T05:56:56.463Z,103582.02
2019-02-15T05:59:28.457Z,103583.79
2019-02-15T06:02:00.404Z,103584.52
2019-02-15T06:04:32.510Z,103583.47
2019-02-15T06:07:04.448Z,103579.91
2019-02-15T06:09:36.367Z,103577.05
2019-02-15T06:12:08.674Z,103581.28
2019-02-15T06:14:40.677Z,103576.25
2019-02-15T06:17:12.648Z,103580.97
2019-02-15T06:19:44.605Z,103577.41
2019-02-15T06:22:16.532Z,103584.39
2019-02-15T06:24:48.470Z,103583.73
2019-02-15T06:27:20.464Z,103588.11
2019-02-15T06:29:52.389Z,103587.30
2019-02-15T06:32:24.585Z,103594.43
2019-02-15T06:34:56.588Z,103590.45
2019-02-15T06:37:28.592Z,103587.30
2019-02-15T06:40:00.807Z,103589.25
2019-02-15T06:42:32.879Z,103591.11
2019-02-15T06:45:07.081Z,103597.03
2019-02-15T06:47:39.011Z,103600.11
2019-02-15T06:50:10.933Z,103596.06
2019-02-15T06:52:43.042Z,103599.95
2019-02-15T06:55:15.326Z,103594.03
2019-02-15T06:57:47.594Z,103543.64
2019-02-15T07:00:37.317Z,103589.47
2019-02-15T07:03:22.899Z,103591.91
2019-02-15T07:05:54.824Z,103583.08
2019-02-15T07:08:27.095Z,103591.05
2019-02-15T07:10:59.020Z,103594.26
2019-02-15T07:13:30.953Z,103591.91
2019-02-15T07:16:02.899Z,103591.51
2019-02-15T07:18:34.848Z,103592.64
2019-02-15T07:21:06.834Z,103603.52
2019-02-15T07:23:39.081Z,103606.76
2019-02-15T07:26:11.022Z,103602.78
2019-02-15T07:28:42.943Z,103601.98
2019-02-15T07:31:14.903Z,103604.83
2019-02-15T07:33:46.852Z,103607.08
2019-02-15T07:36:18.871Z,103609.69
2019-02-15T07:38:51.181Z,103610.27
2019-02-15T07:41:23.105Z,103609.70
2019-02-15T07:43:55.320Z,103604.33
2019-02-15T07:46:27.639Z,103607.02
2019-02-15T07:48:59.561Z,103605.05
2019-02-15T07:51:31.503Z,103612.61
2019-02-15T07:54:03.442Z,103599.52
2019-02-15T07:56:35.445Z,103598.88
2019-02-15T07:59:08.209Z,103598.97
2019-02-15T08:01:40.156Z,103602.02
2019-02-15T08:04:12.187Z,103614.20
2019-02-15T08:06:44.079Z,103616.83
2019-02-15T08:09:16.021Z,103623.30
2019-02-15T08:11:48.094Z,103614.37
2019-02-15T08:14:19.994Z,103609.58
2019-02-15T08:16:52.081Z,103612.59
2019-02-15T08:19:24.049Z,103614.67
2019-02-15T08:21:56.301Z,103617.53
2019-02-15T08:24:30.409Z,103615.83
2019-02-15T08:27:02.810Z,103619.08
2019-02-15T08:29:35.069Z,103618.73
2019-02-15T08:32:06.997Z,103620.52
2019-02-15T08:34:39.288Z,103622.84
2019-02-15T08:37:11.209Z,103615.13
2019-02-15T08:39:43.179Z,103618.67
2019-02-15T08:42:15.106Z,103623.06
2019-02-15T08:44:47.039Z,103626.69
2019-02-15T08:47:18.982Z,103630.17
2019-02-15T08:49:51.871Z,103627.58
2019-02-15T08:52:23.832Z,103627.87
2019-02-15T08:54:55.757Z,103622.09
2019-02-15T08:57:27.699Z,103620.39
2019-02-15T08:59:59.625Z,103622.22
2019-02-15T09:02:31.602Z,103621.20
2019-02-15T09:05:03.523Z,103630.66
2019-02-15T09:07:35.449Z,103629.67
2019-02-15T09:10:13.314Z,103627.75
2019-02-15T09:12:45.246Z,103620.87
2019-02-15T09:15:23.163Z,103622.84
2019-02-15T09:17:55.107Z,103620.51
2019-02-15T09:20:27.061Z,103622.59
2019-02-15T09:22:58.976Z,103620.09
2019-02-15T09:25:31.099Z,103620.92
2019-02-15T09:28:19.350Z,103618.53
2019-02-15T09:30:52.010Z,103618.47
2019-02-15T09:33:23.997Z,103570.88
2019-02-15T09:35:56.500Z,103614.23
2019-02-15T09:38:28.449Z,103613.42
2019-02-15T09:41:00.395Z,103620.91
2019-02-15T09:43:32.349Z,103613.26
2019-02-15T09:46:04.425Z,103616.43
2019-02-15T09:48:36.361Z,103612.76
2019-02-15T09:51:08.490Z,103612.23
2019-02-15T09:53:40.499Z,103586.88
2019-02-15T09:56:12.699Z,103602.73
2019-02-15T09:58:44.660Z,103555.63
2019-02-15T10:01:16.843Z,103607.86
2019-02-15T10:03:49.020Z,103569.06
2019-02-15T10:06:21.152Z,103617.62
2019-02-15T10:08:53.083Z,103623.61
2019-02-15T10:11:25.130Z,103617.97
2019-02-15T10:13:57.217Z,103609.66
2019-02-15T10:16:31.391Z,103556.27
2019-02-15T10:19:02.973Z,103612.66
2019-02-15T10:21:35.630Z,103608.08
2019-02-15T10:24:07.589Z,103606.25
2019-02-15T10:26:39.833Z,103601.23
2019-02-15T10:29:11.949Z,103600.39
2019-02-15T10:31:44.194Z,103596.55
2019-02-15T10:34:16.256Z,103592.53
2019-02-15T10:36:49.173Z,103551.59
2019-02-15T10:39:21.180Z,103600.64
2019-02-15T10:41:54.173Z,103585.30
2019-02-15T10:44:26.315Z,103596.94
2019-02-15T10:46:58.364Z,103592.43
2019-02-15T10:49:30.286Z,103583.26
2019-02-15T10:52:02.257Z,103584.54
2019-02-15T10:54:35.867Z,103585.02
2019-02-15T10:57:08.310Z,103580.28
2019-02-15T11:02:39.187Z,103570.40
2019-02-15T11:05:11.556Z,103561.53
2019-02-15T11:07:43.558Z,103557.34
2019-02-15T11:10:15.540Z,103554.65
2019-02-15T11:12:47.713Z,103559.03
2019-02-15T11:15:19.713Z,103553.20
2019-02-15T11:17:51.713Z,103549.33
2019-02-15T11:20:23.724Z,103545.23
2019-02-15T11:22:55.713Z,103537.17
2019-02-15T11:25:27.682Z,103538.39
2019-02-15T11:27:59.619Z,103532.62
2019-02-15T11:30:31.548Z,103528.98
2019-02-15T11:33:03.665Z,103531.92
2019-02-15T11:35:35.626Z,103528.13
2019-02-15T11:38:07.597Z,103528.06
2019-02-15T11:40:39.627Z,103529.27
2019-02-15T11:43:11.603Z,103518.00
2019-02-15T11:45:43.564Z,103516.27
2019-02-15T11:48:15.819Z,103518.02
2019-02-15T11:50:47.757Z,103519.94
2019-02-15T11:53:19.708Z,103517.23
2019-02-15T11:55:51.631Z,103512.64
2019-02-15T11:58:23.571Z,103504.57
2019-02-15T12:00:56.070Z,103501.58
2019-02-15T12:03:28.394Z,103505.73
2019-02-15T12:06:00.693Z,103496.84
2019-02-15T12:08:32.783Z,103505.52
2019-02-15T12:11:04.799Z,103508.32
2019-02-15T12:13:36.794Z,103509.95
2019-02-15T12:16:08.749Z,103506.20
2019-02-15T12:18:41.014Z,103499.78
2019-02-15T12:21:13.814Z,103498.61
2019-02-15T12:23:46.466Z,103502.91
2019-02-15T12:26:18.995Z,103503.34
2019-02-15T12:28:51.775Z,103497.87
2019-02-15T12:31:23.978Z,103495.16
2019-02-15T12:33:55.904Z,103488.84
2019-02-15T12:36:28.053Z,103485.88
2019-02-15T12:39:00.140Z,103482.64
2019-02-15T12:41:34.024Z,103483.72
2019-02-15T12:44:06.095Z,103478.09
2019-02-15T12:46:38.460Z,103476.36
2019-02-15T12:49:10.821Z,103473.95
2019-02-15T12:51:42.857Z,103470.01
2019-02-15T12:54:14.785Z,103474.64
2019-02-15T12:56:46.744Z,103465.71
2019-02-15T12:59:18.691Z,103466.21
2019-02-15T13:01:50.653Z,103463.30
2019-02-15T13:04:22.606Z,103454.70
2019-02-15T13:06:54.753Z,103449.91
2019-02-15T13:09:26.685Z,103447.23
2019-02-15T13:11:58.635Z,103441.23
2019-02-15T13:14:30.599Z,103443.59
2019-02-15T13:17:02.556Z,103440.03
2019-02-15T13:19:34.568Z,103438.77
2019-02-15T13:22:07.314Z,103437.63
2019-02-15T13:24:39.297Z,103427.73
2019-02-15T13:27:12.726Z,103419.86
2019-02-15T13:29:45.086Z,103419.31
2019-02-15T13:32:17.090Z,103422.70
2019-02-15T13:34:55.175Z,103421.42
2019-02-15T13:37:27.431Z,103415.38
2019-02-15T13:39:59.438Z,103412.44
2019-02-15T13:42:31.508Z,103415.92
2019-02-15T13:45:03.580Z,103410.96
2019-02-15T13:47:35.620Z,103401.70
2019-02-15T13:50:14.355Z,103399.78
2019-02-15T13:52:46.431Z,103397.52
2019-02-15T13:55:18.759Z,103395.02
2019-02-15T13:57:50.759Z,103393.98
2019-02-15T14:00:22.681Z,103382.77
2019-02-15T14:02:54.707Z,103384.73
2019-02-15T14:05:26.687Z,103380.80
2019-02-15T14:07:58.631Z,103381.44
2019-02-15T14:10:30.594Z,103378.56
2019-02-15T14:13:02.637Z,103379.70
2019-02-15T14:15:34.784Z,103370.59
2019-02-15T14:18:06.721Z,103374.33
2019-02-15T14:20:38.691Z,103372.67
2019-02-15T14:23:10.731Z,103374.61
2019-02-15T14:25:42.775Z,103371.22
2019-02-15T14:28:14.715Z,103371.02
2019-02-15T14:30:46.681Z,103368.44
2019-02-15T14:33:18.958Z,103367.06
2019-02-15T14:35:50.892Z,103362.42
2019-02-15T14:38:23.341Z,103363.61
2019-02-15T14:40:55.478Z,103364.55
2019-02-15T14:43:27.973Z,103367.26
2019-02-15T14:46:00.051Z,103361.63
2019-02-15T14:48:31.999Z,103358.56
2019-02-15T14:51:03.944Z,103347.78
2019-02-15T14:53:35.889Z,103342.96
2019-02-15T14:56:07.828Z,103344.77
2019-02-15T14:58:39.932Z,103344.02
2019-02-15T15:01:12.032Z,103335.27
2019-02-15T15:03:43.963Z,103340.53
2019-02-15T15:06:15.913Z,103333.77
2019-02-15T15:08:48.060Z,103327.80
2019-02-15T15:11:20.736Z,103325.25
2019-02-15T15:13:52.674Z,103318.84
2019-02-15T15:16:25.366Z,103315.39
2019-02-15T15:18:57.305Z,103312.16
2019-02-15T15:21:29.575Z,103307.52
2019-02-15T15:24:01.561Z,103313.45
2019-02-15T15:26:33.613Z,103311.19
2019-02-15T15:29:05.640Z,103307.82
2019-02-15T15:31:37.939Z,103299.39
2019-02-15T15:34:12.592Z,103293.07
2019-02-15T15:36:44.723Z,103287.30
2019-02-15T15:39:16.668Z,103286.45
2019-02-15T15:41:48.619Z,103280.27
2019-02-15T15:44:20.550Z,103281.64
2019-02-15T15:46:52.888Z,103276.97
2019-02-15T15:49:24.812Z,103271.02
2019-02-15T15:51:56.772Z,103276.84
2019-02-15T15:54:28.812Z,103276.87
2019-02-15T15:57:00.835Z,103278.55
2019-02-15T15:59:32.854Z,103278.89
2019-02-15T16:02:05.265Z,103279.19
2019-02-15T16:04:37.242Z,103275.34
2019-02-15T16:07:09.162Z,103271.18
2019-02-15T16:09:41.111Z,103274.09
2019-02-15T16:12:13.033Z,103267.97
2019-02-15T16:14:45.014Z,103269.09
2019-02-15T16:17:17.031Z,103268.92
2019-02-15T16:19:49.825Z,103272.12
2019-02-15T16:22:21.941Z,103269.43
2019-02-15T16:24:53.881Z,103269.72
2019-02-15T16:27:25.800Z,103266.10
2019-02-15T16:29:57.810Z,103269.14
2019-02-15T16:32:30.170Z,103271.27
2019-02-15T16:35:02.158Z,103267.20
2019-02-15T16:37:34.143Z,103270.73
2019-02-15T16:40:13.394Z,103272.61
2019-02-15T16:42:45.310Z,103271.05
2019-02-15T16:45:17.948Z,103271.47
2019-02-15T16:47:49.879Z,103273.55
2019-02-15T16:50:21.811Z,103267.57
2019-02-15T16:52:53.771Z,103259.97
2019-02-15T16:55:25.686Z,103262.42
2019-02-15T16:57:58.970Z,103263.05
2019-02-15T17:00:30.933Z,103264.80
2019-02-15T17:03:04.175Z,103267.73
2019-02-15T17:05:36.103Z,103271.31
2019-02-15T17:08:08.411Z,103266.53
2019-02-15T17:10:40.671Z,103267.52
2019-02-15T17:13:12.958Z,103265.02
2019-02-15T17:15:44.880Z,103264.37
2019-02-15T17:18:16.905Z,103259.90
2019-02-15T17:20:49.067Z,103262.56
2019-02-15T17:23:21.144Z,103259.09
2019-02-15T17:25:53.113Z,103263.87
2019-02-15T17:28:25.016Z,103263.28
2019-02-15T17:30:57.422Z,103259.80
2019-02-15T17:33:29.354Z,103257.71
2019-02-15T17:36:01.288Z,103256.51
2019-02-15T17:38:33.307Z,103252.81
2019-02-15T17:41:05.237Z,103253.85
2019-02-15T17:43:37.196Z,103252.59
2019-02-15T17:46:09.274Z,103251.09
2019-02-15T17:48:41.220Z,103253.25
2019-02-15T17:51:13.138Z,103248.61
2019-02-15T17:53:45.169Z,103250.09
2019-02-15T17:56:17.530Z,103245.70
2019-02-15T17:58:49.480Z,103241.33
2019-02-15T18:01:21.408Z,103240.55
2019-02-15T18:03:53.760Z,103241.55
2019-02-15T18:06:25.695Z,103231.57
2019-02-15T18:08:57.628Z,103233.29
2019-02-15T18:11:29.557Z,103224.83
2019-02-15T18:14:01.520Z,103226.72
2019-02-15T18:16:33.444Z,103225.17
2019-02-15T18:19:10.112Z,103225.56
2019-02-15T18:21:39.202Z,103224.15
2019-02-15T18:24:11.130Z,103217.18
2019-02-15T18:26:43.056Z,103218.31
2019-02-15T18:29:14.983Z,103223.19
2019-02-15T18:31:47.077Z,103221.80
2019-02-15T18:34:19.107Z,103219.92
2019-02-15T18:36:51.086Z,103215.23
2019-02-15T18:39:22.999Z,103209.41
2019-02-15T18:41:56.627Z,103212.84
2019-02-15T18:44:28.556Z,103212.67
2019-02-15T18:47:00.489Z,103213.45
2019-02-15T18:49:32.419Z,103207.42
2019-02-15T18:52:04.343Z,103204.38
2019-02-15T18:54:36.285Z,103200.97
2019-02-15T18:57:08.231Z,103200.54
2019-02-15T18:59:40.157Z,103194.93
2019-02-15T19:02:12.763Z,103196.09
2019-02-15T19:04:44.688Z,103191.64
2019-02-15T19:07:16.661Z,103199.63
2019-02-15T19:09:48.582Z,103198.36
2019-02-15T19:12:20.562Z,103196.88
2019-02-15T19:14:52.480Z,103192.40
2019-02-15T19:17:24.419Z,103191.42
2019-02-15T19:19:56.339Z,103192.70
2019-02-15T19:22:28.299Z,103189.41
2019-02-15T19:25:00.383Z,103188.27
2019-02-15T19:27:32.267Z,103182.94
2019-02-15T19:30:07.683Z,103187.09
2019-02-15T19:32:39.664Z,103179.37
2019-02-15T19:35:11.629Z,103181.02
2019-02-15T19:37:43.564Z,103179.27
2019-02-15T19:40:19.378Z,103175.70
2019-02-15T19:42:56.072Z,103169.91
2019-02-15T19:45:28.012Z,103169.78
2019-02-15T19:47:59.961Z,103164.31
2019-02-15T19:50:31.922Z,103167.42
2019-02-15T19:53:03.874Z,103169.69
2019-02-15T19:55:35.783Z,103168.49
2019-02-15T19:58:07.735Z,103160.70
2019-02-15T20:00:39.659Z,103156.66
2019-02-15T20:03:11.595Z,103157.72
2019-02-15T20:05:44.352Z,103156.59
2019-02-15T20:08:16.315Z,103152.61
2019-02-15T20:10:48.241Z,103156.56
2019-02-15T20:13:20.249Z,103150.07
2019-02-15T20:15:52.162Z,103150.23
2019-02-15T20:18:24.122Z,103148.44
2019-02-15T20:20:56.060Z,103142.56
2019-02-15T20:23:27.991Z,103130.20
2019-02-15T20:25:59.926Z,103138.12
2019-02-15T20:28:32.027Z,103130.88
2019-02-15T20:31:04.026Z,103132.63
2019-02-15T20:33:35.962Z,103127.99
2019-02-15T20:36:07.924Z,103123.66
2019-02-15T20:38:39.854Z,103124.78
2019-02-15T20:41:11.886Z,103122.80
2019-02-15T20:43:44.186Z,103122.52
2019-02-15T20:46:16.133Z,103121.25
2019-02-15T20:48:48.379Z,103120.17
2019-02-15T20:51:20.360Z,103122.94
2019-02-15T20:53:52.281Z,103122.41
2019-02-15T20:56:24.207Z,103121.52
2019-02-15T20:58:56.144Z,103123.55
2019-02-15T21:01:28.068Z,103121.58
2019-02-15T21:04:00.002Z,103126.38
2019-02-15T21:06:32.031Z,103124.34
2019-02-15T21:09:05.078Z,103116.05
2019-02-15T21:11:37.701Z,103113.89
2019-02-15T21:14:09.712Z,103117.33
2019-02-15T21:16:41.718Z,103114.82
2019-02-15T21:19:13.936Z,103116.52
2019-02-15T21:21:45.865Z,103110.06
2019-02-15T21:24:17.811Z,103109.84
2019-02-15T21:26:49.728Z,103104.33
2019-02-15T21:29:21.688Z,103094.41
2019-02-15T21:31:53.613Z,103100.70
2019-02-15T21:34:25.712Z,103100.33
2019-02-15T21:36:57.648Z,103092.76
2019-02-15T21:39:29.584Z,103093.70
2019-02-15T21:42:01.511Z,103093.36
2019-02-15T21:44:33.482Z,103092.05
2019-02-15T21:47:05.712Z,103089.11
2019-02-15T21:49:38.541Z,103088.05
2019-02-15T21:52:10.815Z,103084.73
2019-02-15T21:54:42.737Z,103089.56
2019-02-15T21:57:14.661Z,103081.53
2019-02-15T21:59:46.585Z,103080.18
2019-02-15T22:02:18.503Z,103076.16
2019-02-15T22:04:50.464Z,103075.03
2019-02-15T22:07:23.473Z,103070.95
2019-02-15T22:09:55.398Z,103064.13
2019-02-15T22:12:27.329Z,103061.47
2019-02-15T22:14:59.290Z,103058.74
2019-02-15T22:17:31.207Z,103054.45
2019-02-15T22:20:03.165Z,103052.41
2019-02-15T22:22:35.092Z,103047.27
2019-02-15T22:25:08.627Z,103039.59
2019-02-15T22:27:40.943Z,103038.88
2019-02-15T22:30:18.556Z,103032.05
2019-02-15T22:32:50.472Z,103037.91
2019-02-15T22:35:22.760Z,103035.38
2019-02-15T22:37:54.670Z,103027.52
2019-02-15T22:40:29.897Z,103023.89
2019-02-15T22:43:18.212Z,103018.61
2019-02-15T22:45:50.214Z,103020.83
2019-02-15T22:48:22.447Z,103021.94
2019-02-15T22:50:54.414Z,103016.53
2019-02-15T22:53:26.325Z,103011.80
2019-02-15T22:55:58.267Z,103008.95
2019-02-15T22:58:30.225Z,103005.46
2019-02-15T23:01:06.788Z,103005.97
2019-02-15T23:03:38.776Z,103004.53
2019-02-15T23:06:10.801Z,103002.52
2019-02-15T23:08:42.717Z,103004.16
2019-02-15T23:11:14.644Z,103004.68
2019-02-15T23:13:46.570Z,103004.39
2019-02-15T23:16:18.565Z,103001.99
2019-02-15T23:18:50.651Z,103002.63
2019-02-15T23:21:22.599Z,103001.85
2019-02-15T23:23:54.507Z,103013.95
2019-02-15T23:26:26.447Z,103007.64
2019-02-15T23:28:58.371Z,103006.98
2019-02-15T23:31:30.371Z,103002.70
2019-02-15T23:34:02.702Z,103010.78
2019-02-15T23:36:34.630Z,103006.42
2019-02-15T23:39:08.313Z,103006.45
2019-02-15T23:41:40.236Z,103000.73
2019-02-15T23:44:12.174Z,102992.69
2019-02-15T23:46:44.465Z,102993.94
2019-02-15T23:49:16.372Z,102987.20
2019-02-15T23:51:48.329Z,102984.95
2019-02-15T23:54:20.244Z,102979.13
2019-02-15T23:56:52.530Z,102976.20
2019-02-15T23:59:24.445Z,102968.77
